sensor_id;sensor_type;location;lat;lon;timestamp;pressure;altitude;pressure_sealevel;temperature;humidity
64679;BME280;51094;53.864;27.676;2023-09-19T00:00:21;99169.50;;;17.42;60.53
64679;BME280;51094;53.864;27.676;2023-09-19T00:02:55;99250.47;;;17.82;60.50
64679;BME280;51094;53.864;27.676;2023-09-19T00:05:27;99240.28;;;17.79;60.60
64679;BME280;51094;53.864;27.676;2023-09-19T00:07:56;99229.47;;;17.65;60.70
64679;BME280;51094;53.864;27.676;2023-09-19T00:10:29;99183.53;;;17.25;60.46
64679;BME280;51094;53.864;27.676;2023-09-19T00:12:58;99193.63;;;17.38;60.52
64679;BME280;51094;53.864;27.676;2023-09-19T00:15:40;99240.97;;;17.63;60.41
64679;BME280;51094;53.864;27.676;2023-09-19T00:18:08;99171.00;;;17.19;60.44
64679;BME280;51094;53.864;27.676;2023-09-19T00:20:36;99098.19;;;16.68;60.08
64679;BME280;51094;53.864;27.676;2023-09-19T00:23:05;99239.09;;;17.56;60.58
64679;BME280;51094;53.864;27.676;2023-09-19T00:25:32;99237.75;;;17.52;60.48
64679;BME280;51094;53.864;27.676;2023-09-19T00:27:59;99213.50;;;17.40;60.71
64679;BME280;51094;53.864;27.676;2023-09-19T00:30:26;99179.69;;;17.19;60.71
64679;BME280;51094;53.864;27.676;2023-09-19T00:32:53;99216.28;;;17.39;60.77
64679;BME280;51094;53.864;27.676;2023-09-19T00:35:22;99201.47;;;17.29;60.60
64679;BME280;51094;53.864;27.676;2023-09-19T00:37:53;99222.59;;;17.46;60.73
64679;BME280;51094;53.864;27.676;2023-09-19T00:40:20;99216.00;;;17.42;60.95
64679;BME280;51094;53.864;27.676;2023-09-19T00:42:48;99219.06;;;17.37;61.01
64679;BME280;51094;53.864;27.676;2023-09-19T00:45:17;99208.88;;;17.34;61.51
64679;BME280;51094;53.864;27.676;2023-09-19T00:47:47;99204.25;;;17.28;61.56
64679;BME280;51094;53.864;27.676;2023-09-19T00:50:19;99194.94;;;17.16;61.54
64679;BME280;51094;53.864;27.676;2023-09-19T00:52:50;99209.72;;;17.17;61.82
64679;BME280;51094;53.864;27.676;2023-09-19T00:55:19;99241.72;;;17.12;61.91
64679;BME280;51094;53.864;27.676;2023-09-19T00:57:47;99196.38;;;17.10;62.16
64679;BME280;51094;53.864;27.676;2023-09-19T01:00:16;99134.63;;;16.71;61.90
64679;BME280;51094;53.864;27.676;2023-09-19T01:02:47;99188.41;;;17.02;62.16
64679;BME280;51094;53.864;27.676;2023-09-19T01:05:15;99029.97;;;16.05;62.30
64679;BME280;51094;53.864;27.676;2023-09-19T01:07:42;99186.22;;;16.98;62.49
64679;BME280;51094;53.864;27.676;2023-09-19T01:10:17;99146.94;;;16.70;62.46
64679;BME280;51094;53.864;27.676;2023-09-19T01:18:52;99188.47;;;16.92;62.47
64679;BME280;51094;53.864;27.676;2023-09-19T01:22:00;99185.50;;;16.87;62.34
64679;BME280;51094;53.864;27.676;2023-09-19T01:30:14;99145.09;;;16.53;62.46
64679;BME280;51094;53.864;27.676;2023-09-19T01:32:42;99159.53;;;16.67;62.43
64679;BME280;51094;53.864;27.676;2023-09-19T01:35:10;99086.19;;;16.20;62.48
64679;BME280;51094;53.864;27.676;2023-09-19T01:37:39;99111.94;;;16.34;62.26
64679;BME280;51094;53.864;27.676;2023-09-19T01:40:15;99150.88;;;16.56;62.55
64679;BME280;51094;53.864;27.676;2023-09-19T01:47:52;99143.72;;;16.49;62.35
64679;BME280;51094;53.864;27.676;2023-09-19T01:50:30;99139.09;;;16.43;62.51
64679;BME280;51094;53.864;27.676;2023-09-19T01:53:23;99134.81;;;16.42;62.21
64679;BME280;51094;53.864;27.676;2023-09-19T01:55:52;99056.72;;;15.90;62.31
64679;BME280;51094;53.864;27.676;2023-09-19T02:01:08;99130.16;;;16.36;62.39
64679;BME280;51094;53.864;27.676;2023-09-19T02:03:38;99124.09;;;16.35;62.21
64679;BME280;51094;53.864;27.676;2023-09-19T02:06:07;99108.31;;;16.17;62.05
64679;BME280;51094;53.864;27.676;2023-09-19T02:08:38;99125.88;;;16.35;62.03
64679;BME280;51094;53.864;27.676;2023-09-19T02:11:05;99116.66;;;16.30;61.75
64679;BME280;51094;53.864;27.676;2023-09-19T02:13:32;99105.78;;;16.25;61.74
64679;BME280;51094;53.864;27.676;2023-09-19T02:16:00;99122.72;;;16.31;61.62
64679;BME280;51094;53.864;27.676;2023-09-19T02:18:27;99121.00;;;16.22;62.00
64679;BME280;51094;53.864;27.676;2023-09-19T02:20:55;99119.34;;;16.21;62.14
64679;BME280;51094;53.864;27.676;2023-09-19T02:23:22;99124.06;;;16.17;62.08
64679;BME280;51094;53.864;27.676;2023-09-19T02:25:56;99122.00;;;16.11;62.13
64679;BME280;51094;53.864;27.676;2023-09-19T02:28:24;99101.84;;;15.94;62.19
64679;BME280;51094;53.864;27.676;2023-09-19T02:30:56;99030.28;;;15.47;62.07
64679;BME280;51094;53.864;27.676;2023-09-19T02:33:23;99111.94;;;15.89;62.35
64679;BME280;51094;53.864;27.676;2023-09-19T02:35:56;99110.59;;;15.75;62.68
64679;BME280;51094;53.864;27.676;2023-09-19T02:38:27;99108.84;;;15.66;63.07
64679;BME280;51094;53.864;27.676;2023-09-19T02:40:56;99074.56;;;15.40;63.18
64679;BME280;51094;53.864;27.676;2023-09-19T02:43:23;99095.22;;;15.53;63.25
64679;BME280;51094;53.864;27.676;2023-09-19T02:45:50;99072.66;;;15.32;63.01
64679;BME280;51094;53.864;27.676;2023-09-19T02:48:20;99068.81;;;15.27;63.27
64679;BME280;51094;53.864;27.676;2023-09-19T02:50:50;99039.94;;;15.09;63.51
64679;BME280;51094;53.864;27.676;2023-09-19T02:53:17;99113.56;;;15.53;63.53
64679;BME280;51094;53.864;27.676;2023-09-19T02:55:48;99078.03;;;15.31;63.39
64679;BME280;51094;53.864;27.676;2023-09-19T02:58:16;99107.09;;;15.47;63.47
64679;BME280;51094;53.864;27.676;2023-09-19T03:00:43;99055.50;;;15.11;63.18
64679;BME280;51094;53.864;27.676;2023-09-19T03:03:15;99007.06;;;14.78;63.83
64679;BME280;51094;53.864;27.676;2023-09-19T03:05:45;99103.13;;;15.34;63.79
64679;BME280;51094;53.864;27.676;2023-09-19T03:08:16;99101.09;;;15.27;63.75
64679;BME280;51094;53.864;27.676;2023-09-19T03:10:46;99109.38;;;15.23;63.96
64679;BME280;51094;53.864;27.676;2023-09-19T03:13:14;99094.63;;;15.22;63.88
64679;BME280;51094;53.864;27.676;2023-09-19T03:15:42;99050.84;;;14.95;63.83
64679;BME280;51094;53.864;27.676;2023-09-19T03:18:17;99098.34;;;15.19;64.07
64679;BME280;51094;53.864;27.676;2023-09-19T03:20:52;99098.47;;;15.18;63.68
64679;BME280;51094;53.864;27.676;2023-09-19T03:23:22;99090.66;;;15.08;63.83
64679;BME280;51094;53.864;27.676;2023-09-19T03:25:50;99086.00;;;15.02;63.96
64679;BME280;51094;53.864;27.676;2023-09-19T03:28:17;99078.16;;;14.92;64.44
64679;BME280;51094;53.864;27.676;2023-09-19T03:30:44;99056.94;;;14.86;64.31
64679;BME280;51094;53.864;27.676;2023-09-19T03:33:12;99094.66;;;15.12;64.26
64679;BME280;51094;53.864;27.676;2023-09-19T03:35:39;99098.94;;;15.13;64.14
64679;BME280;51094;53.864;27.676;2023-09-19T03:38:07;99048.13;;;14.77;63.86
64679;BME280;51094;53.864;27.676;2023-09-19T03:40:33;99058.44;;;14.88;63.77
64679;BME280;51094;53.864;27.676;2023-09-19T03:43:01;99068.50;;;14.93;63.83
64679;BME280;51094;53.864;27.676;2023-09-19T03:45:29;99067.13;;;14.89;63.81
64679;BME280;51094;53.864;27.676;2023-09-19T03:47:55;99071.81;;;14.95;63.97
64679;BME280;51094;53.864;27.676;2023-09-19T03:50:23;99064.91;;;14.94;63.82
64679;BME280;51094;53.864;27.676;2023-09-19T03:52:56;99125.53;;;15.09;63.91
64679;BME280;51094;53.864;27.676;2023-09-19T03:55:23;99083.91;;;15.06;63.72
64679;BME280;51094;53.864;27.676;2023-09-19T03:57:50;99059.81;;;14.92;63.61
64679;BME280;51094;53.864;27.676;2023-09-19T04:00:17;99076.47;;;15.01;63.88
64679;BME280;51094;53.864;27.676;2023-09-19T04:02:48;99074.13;;;14.98;63.76
64679;BME280;51094;53.864;27.676;2023-09-19T04:05:15;98994.72;;;14.41;63.49
64679;BME280;51094;53.864;27.676;2023-09-19T04:07:43;99074.44;;;14.85;63.64
64679;BME280;51094;53.864;27.676;2023-09-19T04:10:10;99075.41;;;14.84;63.86
64679;BME280;51094;53.864;27.676;2023-09-19T04:12:55;99058.72;;;14.85;64.02
64679;BME280;51094;53.864;27.676;2023-09-19T04:15:23;99024.88;;;14.64;63.88
64679;BME280;51094;53.864;27.676;2023-09-19T04:17:53;99060.25;;;14.88;63.73
64679;BME280;51094;53.864;27.676;2023-09-19T04:20:20;99055.97;;;14.87;63.95
64679;BME280;51094;53.864;27.676;2023-09-19T04:22:49;99023.22;;;14.63;63.48
64679;BME280;51094;53.864;27.676;2023-09-19T04:25:16;99043.56;;;14.79;63.60
64679;BME280;51094;53.864;27.676;2023-09-19T04:27:44;99004.91;;;14.44;63.85
64679;BME280;51094;53.864;27.676;2023-09-19T04:30:11;99047.00;;;14.80;63.58
64679;BME280;51094;53.864;27.676;2023-09-19T04:32:39;98972.28;;;14.29;63.42
64679;BME280;51094;53.864;27.676;2023-09-19T04:35:07;99054.88;;;14.80;63.41
64679;BME280;51094;53.864;27.676;2023-09-19T04:37:39;99054.03;;;14.79;64.04
64679;BME280;51094;53.864;27.676;2023-09-19T04:40:09;99047.69;;;14.82;63.66
64679;BME280;51094;53.864;27.676;2023-09-19T04:42:41;98979.28;;;14.38;63.71
64679;BME280;51094;53.864;27.676;2023-09-19T04:45:09;99048.38;;;14.84;63.82
64679;BME280;51094;53.864;27.676;2023-09-19T04:47:37;99043.75;;;14.68;63.70
64679;BME280;51094;53.864;27.676;2023-09-19T04:50:07;99026.13;;;14.70;63.67
64679;BME280;51094;53.864;27.676;2023-09-19T04:52:34;99036.69;;;14.88;63.22
64679;BME280;51094;53.864;27.676;2023-09-19T04:55:01;98966.66;;;14.43;63.38
64679;BME280;51094;53.864;27.676;2023-09-19T04:57:29;98912.16;;;14.10;63.32
64679;BME280;51094;53.864;27.676;2023-09-19T04:59:55;99034.88;;;14.98;63.57
64679;BME280;51094;53.864;27.676;2023-09-19T05:02:22;98970.22;;;14.61;63.22
64679;BME280;51094;53.864;27.676;2023-09-19T05:04:52;99035.69;;;15.08;62.64
64679;BME280;51094;53.864;27.676;2023-09-19T05:07:20;99042.00;;;15.15;62.95
64679;BME280;51094;53.864;27.676;2023-09-19T05:09:50;99043.31;;;15.29;62.84
64679;BME280;51094;53.864;27.676;2023-09-19T05:12:16;99011.41;;;15.16;62.06
64679;BME280;51094;53.864;27.676;2023-09-19T05:14:46;99015.19;;;15.31;62.41
64679;BME280;51094;53.864;27.676;2023-09-19T05:17:13;98993.00;;;15.25;61.96
64679;BME280;51094;53.864;27.676;2023-09-19T05:19:43;99044.28;;;15.65;61.42
64679;BME280;51094;53.864;27.676;2023-09-19T05:22:10;99041.38;;;15.68;61.48
64679;BME280;51094;53.864;27.676;2023-09-19T05:24:38;99040.22;;;15.80;61.33
64679;BME280;51094;53.864;27.676;2023-09-19T05:27:05;98971.56;;;15.40;60.60
64679;BME280;51094;53.864;27.676;2023-09-19T05:29:34;99016.19;;;15.85;60.74
64679;BME280;51094;53.864;27.676;2023-09-19T05:32:00;98968.66;;;15.70;60.37
64679;BME280;51094;53.864;27.676;2023-09-19T05:34:27;99039.44;;;16.15;59.71
64679;BME280;51094;53.864;27.676;2023-09-19T05:36:57;99033.34;;;16.15;60.06
64679;BME280;51094;53.864;27.676;2023-09-19T05:39:23;99034.03;;;16.17;59.50
64679;BME280;51094;53.864;27.676;2023-09-19T05:41:50;99000.91;;;16.16;59.62
64679;BME280;51094;53.864;27.676;2023-09-19T05:44:17;99021.91;;;16.34;59.65
64679;BME280;51094;53.864;27.676;2023-09-19T05:46:44;99019.66;;;16.39;59.15
64679;BME280;51094;53.864;27.676;2023-09-19T05:49:12;99017.59;;;16.50;59.22
64679;BME280;51094;53.864;27.676;2023-09-19T05:51:39;99016.63;;;16.51;58.75
64679;BME280;51094;53.864;27.676;2023-09-19T05:54:06;98862.75;;;15.63;58.66
64679;BME280;51094;53.864;27.676;2023-09-19T05:56:33;98943.03;;;16.17;58.42
64679;BME280;51094;53.864;27.676;2023-09-19T05:59:00;98941.16;;;16.27;58.56
64679;BME280;51094;53.864;27.676;2023-09-19T06:01:27;99003.41;;;16.79;58.48
64679;BME280;51094;53.864;27.676;2023-09-19T06:03:54;98953.84;;;16.58;58.27
64679;BME280;51094;53.864;27.676;2023-09-19T06:06:20;98842.31;;;15.84;57.90
64679;BME280;51094;53.864;27.676;2023-09-19T06:08:48;99010.75;;;17.01;57.58
64679;BME280;51094;53.864;27.676;2023-09-19T06:11:17;99009.13;;;17.00;57.52
64679;BME280;51094;53.864;27.676;2023-09-19T06:13:47;99012.66;;;17.17;57.36
64679;BME280;51094;53.864;27.676;2023-09-19T06:16:14;99011.94;;;17.33;56.86
64679;BME280;51094;53.864;27.676;2023-09-19T06:18:41;98942.94;;;16.96;57.02
64679;BME280;51094;53.864;27.676;2023-09-19T06:21:07;98870.94;;;16.73;56.32
64679;BME280;51094;53.864;27.676;2023-09-19T06:23:35;98834.22;;;16.55;56.01
64679;BME280;51094;53.864;27.676;2023-09-19T06:26:02;99007.94;;;17.62;55.62
64679;BME280;51094;53.864;27.676;2023-09-19T06:28:30;99018.63;;;17.61;55.35
64679;BME280;51094;53.864;27.676;2023-09-19T06:30:57;98994.13;;;17.60;55.92
64679;BME280;51094;53.864;27.676;2023-09-19T06:33:24;98960.09;;;17.51;55.66
64679;BME280;51094;53.864;27.676;2023-09-19T06:35:52;99003.59;;;17.87;55.66
64679;BME280;51094;53.864;27.676;2023-09-19T06:38:24;98950.22;;;17.53;55.03
64679;BME280;51094;53.864;27.676;2023-09-19T06:40:51;98990.53;;;17.61;55.20
64679;BME280;51094;53.864;27.676;2023-09-19T06:43:18;98873.41;;;16.75;55.40
64679;BME280;51094;53.864;27.676;2023-09-19T06:45:45;99009.75;;;17.62;55.75
64679;BME280;51094;53.864;27.676;2023-09-19T06:48:12;99000.63;;;17.74;55.51
64679;BME280;51094;53.864;27.676;2023-09-19T06:50:39;99004.13;;;17.99;55.41
64679;BME280;51094;53.864;27.676;2023-09-19T06:53:07;98986.88;;;18.13;55.13
64679;BME280;51094;53.864;27.676;2023-09-19T06:55:36;98966.16;;;18.18;54.77
64679;BME280;51094;53.864;27.676;2023-09-19T06:58:03;98985.41;;;18.51;54.23
64679;BME280;51094;53.864;27.676;2023-09-19T07:00:32;98974.22;;;18.65;54.35
64679;BME280;51094;53.864;27.676;2023-09-19T07:03:07;98928.81;;;18.55;53.17
64679;BME280;51094;53.864;27.676;2023-09-19T07:05:40;98956.44;;;18.75;52.93
64679;BME280;51094;53.864;27.676;2023-09-19T07:08:08;98946.41;;;18.71;52.67
64679;BME280;51094;53.864;27.676;2023-09-19T07:10:38;98987.63;;;19.11;52.51
64679;BME280;51094;53.864;27.676;2023-09-19T07:13:07;98974.91;;;19.22;51.38
64679;BME280;51094;53.864;27.676;2023-09-19T07:15:38;98997.94;;;19.37;51.85
64679;BME280;51094;53.864;27.676;2023-09-19T07:18:08;98964.38;;;19.22;50.92
64679;BME280;51094;53.864;27.676;2023-09-19T07:20:38;98986.88;;;19.41;50.17
64679;BME280;51094;53.864;27.676;2023-09-19T07:23:05;98985.56;;;19.37;51.25
64679;BME280;51094;53.864;27.676;2023-09-19T07:25:32;98973.84;;;19.40;51.50
64679;BME280;51094;53.864;27.676;2023-09-19T07:27:59;98907.56;;;19.12;51.24
64679;BME280;51094;53.864;27.676;2023-09-19T07:30:28;98964.88;;;19.57;51.50
64679;BME280;51094;53.864;27.676;2023-09-19T07:32:55;98963.16;;;19.72;51.06
64679;BME280;51094;53.864;27.676;2023-09-19T07:35:23;98930.31;;;19.52;50.98
64679;BME280;51094;53.864;27.676;2023-09-19T07:37:50;98945.41;;;19.66;51.26
64679;BME280;51094;53.864;27.676;2023-09-19T07:40:19;98968.34;;;19.88;51.42
64679;BME280;51094;53.864;27.676;2023-09-19T07:42:47;98890.28;;;19.48;50.88
64679;BME280;51094;53.864;27.676;2023-09-19T07:45:14;98919.16;;;19.73;50.94
64679;BME280;51094;53.864;27.676;2023-09-19T07:47:48;98962.25;;;20.11;50.51
64679;BME280;51094;53.864;27.676;2023-09-19T07:50:19;98945.34;;;19.97;50.80
64679;BME280;51094;53.864;27.676;2023-09-19T07:52:50;98904.94;;;19.97;50.36
64679;BME280;51094;53.864;27.676;2023-09-19T07:55:21;98946.75;;;20.31;49.11
64679;BME280;51094;53.864;27.676;2023-09-19T07:57:52;98938.91;;;20.37;50.38
64679;BME280;51094;53.864;27.676;2023-09-19T08:00:19;98955.97;;;20.72;50.43
64679;BME280;51094;53.864;27.676;2023-09-19T08:02:46;98896.38;;;20.55;48.80
64679;BME280;51094;53.864;27.676;2023-09-19T08:05:24;98950.78;;;20.93;48.98
64679;BME280;51094;53.864;27.676;2023-09-19T08:07:51;98846.50;;;20.37;48.82
64679;BME280;51094;53.864;27.676;2023-09-19T08:10:19;98778.63;;;19.93;48.55
64679;BME280;51094;53.864;27.676;2023-09-19T08:12:48;98929.66;;;21.08;48.61
64679;BME280;51094;53.864;27.676;2023-09-19T08:15:19;98944.31;;;21.25;48.37
64679;BME280;51094;53.864;27.676;2023-09-19T08:17:47;98849.25;;;20.88;47.37
64679;BME280;51094;53.864;27.676;2023-09-19T08:20:14;98939.47;;;21.44;47.90
64679;BME280;51094;53.864;27.676;2023-09-19T08:22:53;98912.72;;;21.53;47.00
64679;BME280;51094;53.864;27.676;2023-09-19T08:25:23;98915.19;;;21.55;46.42
64679;BME280;51094;53.864;27.676;2023-09-19T08:27:52;98508.53;;;19.06;46.77
64679;BME280;51094;53.864;27.676;2023-09-19T08:30:21;98917.91;;;21.83;46.88
64679;BME280;51094;53.864;27.676;2023-09-19T08:32:57;98916.75;;;22.07;46.32
64679;BME280;51094;53.864;27.676;2023-09-19T08:35:28;98915.03;;;22.20;45.08
64679;BME280;51094;53.864;27.676;2023-09-19T08:37:55;98915.53;;;22.31;45.32
64679;BME280;51094;53.864;27.676;2023-09-19T08:40:23;98894.34;;;22.31;45.49
64679;BME280;51094;53.864;27.676;2023-09-19T08:42:55;98913.41;;;22.47;44.23
64679;BME280;51094;53.864;27.676;2023-09-19T08:45:23;98906.75;;;22.58;44.71
64679;BME280;51094;53.864;27.676;2023-09-19T08:48:03;98898.94;;;22.78;44.90
64679;BME280;51094;53.864;27.676;2023-09-19T08:50:43;98898.03;;;22.92;44.30
64679;BME280;51094;53.864;27.676;2023-09-19T08:53:15;98889.84;;;22.87;43.38
64679;BME280;51094;53.864;27.676;2023-09-19T08:55:43;98877.09;;;22.76;43.51
64679;BME280;51094;53.864;27.676;2023-09-19T08:58:16;98903.78;;;23.02;43.39
64679;BME280;51094;53.864;27.676;2023-09-19T09:00:51;98891.66;;;23.28;43.62
64679;BME280;51094;53.864;27.676;2023-09-19T09:03:20;98891.91;;;23.52;42.47
64679;BME280;51094;53.864;27.676;2023-09-19T09:05:49;98894.22;;;23.62;41.84
64679;BME280;51094;53.864;27.676;2023-09-19T09:08:19;98867.19;;;23.32;41.63
64679;BME280;51094;53.864;27.676;2023-09-19T09:10:49;98850.25;;;23.40;41.36
64679;BME280;51094;53.864;27.676;2023-09-19T09:13:17;98885.66;;;23.67;41.74
64679;BME280;51094;53.864;27.676;2023-09-19T09:15:44;98849.47;;;23.52;41.28
64679;BME280;51094;53.864;27.676;2023-09-19T09:18:11;98828.44;;;23.51;41.88
64679;BME280;51094;53.864;27.676;2023-09-19T09:20:38;98882.84;;;24.14;41.96
64679;BME280;51094;53.864;27.676;2023-09-19T09:23:05;98817.06;;;23.90;40.29
64679;BME280;51094;53.864;27.676;2023-09-19T09:25:52;98882.03;;;24.47;40.95
64679;BME280;51094;53.864;27.676;2023-09-19T09:28:24;98793.34;;;24.15;40.19
64679;BME280;51094;53.864;27.676;2023-09-19T09:30:51;98872.56;;;24.71;39.32
64679;BME280;51094;53.864;27.676;2023-09-19T09:33:18;98847.28;;;24.55;38.84
64679;BME280;51094;53.864;27.676;2023-09-19T09:35:52;98869.28;;;24.75;39.49
64679;BME280;51094;53.864;27.676;2023-09-19T09:38:21;98860.28;;;24.83;38.84
64679;BME280;51094;53.864;27.676;2023-09-19T09:40:52;98854.53;;;24.99;39.39
64679;BME280;51094;53.864;27.676;2023-09-19T09:46:16;98849.84;;;25.33;38.54
64679;BME280;51094;53.864;27.676;2023-09-19T09:49:04;98855.13;;;25.46;37.88
64679;BME280;51094;53.864;27.676;2023-09-19T09:51:44;98851.53;;;25.59;37.39
64679;BME280;51094;53.864;27.676;2023-09-19T09:54:16;98803.50;;;25.47;36.42
64679;BME280;51094;53.864;27.676;2023-09-19T09:56:58;98846.63;;;25.94;35.55
64679;BME280;51094;53.864;27.676;2023-09-19T09:59:48;98861.84;;;25.87;35.75
64679;BME280;51094;53.864;27.676;2023-09-19T10:02:18;98802.03;;;25.82;35.14
64679;BME280;51094;53.864;27.676;2023-09-19T10:04:52;98849.91;;;25.96;35.36
64679;BME280;51094;53.864;27.676;2023-09-19T10:07:52;98844.38;;;26.15;36.13
64679;BME280;51094;53.864;27.676;2023-09-19T10:10:37;98837.72;;;26.49;35.93
64679;BME280;51094;53.864;27.676;2023-09-19T10:13:11;98826.97;;;26.93;34.54
64679;BME280;51094;53.864;27.676;2023-09-19T10:15:42;98836.69;;;27.24;34.61
64679;BME280;51094;53.864;27.676;2023-09-19T10:18:25;98827.44;;;27.68;33.48
64679;BME280;51094;53.864;27.676;2023-09-19T10:20:54;98821.22;;;27.97;32.66
64679;BME280;51094;53.864;27.676;2023-09-19T10:23:22;98818.19;;;28.05;32.19
64679;BME280;51094;53.864;27.676;2023-09-19T10:25:51;98793.69;;;28.08;31.14
64679;BME280;51094;53.864;27.676;2023-09-19T10:28:20;98791.25;;;28.07;31.00
64679;BME280;51094;53.864;27.676;2023-09-19T10:30:52;98814.22;;;28.20;30.77
64679;BME280;51094;53.864;27.676;2023-09-19T10:33:24;98839.50;;;28.35;29.86
64679;BME280;51094;53.864;27.676;2023-09-19T10:35:59;98804.22;;;28.62;30.00
64679;BME280;51094;53.864;27.676;2023-09-19T10:38:27;98797.34;;;28.66;28.77
64679;BME280;51094;53.864;27.676;2023-09-19T10:40:56;98803.75;;;28.65;29.84
64679;BME280;51094;53.864;27.676;2023-09-19T10:43:32;98794.28;;;28.97;28.41
64679;BME280;51094;53.864;27.676;2023-09-19T10:46:05;98795.59;;;29.11;28.24
64679;BME280;51094;53.864;27.676;2023-09-19T10:48:34;98765.81;;;29.08;28.27
64679;BME280;51094;53.864;27.676;2023-09-19T10:51:11;98800.97;;;29.57;28.46
64679;BME280;51094;53.864;27.676;2023-09-19T10:53:51;98780.63;;;30.06;28.02
64679;BME280;51094;53.864;27.676;2023-09-19T10:56:29;98785.47;;;30.48;27.22
64679;BME280;51094;53.864;27.676;2023-09-19T10:59:20;98802.72;;;30.52;26.34
64679;BME280;51094;53.864;27.676;2023-09-19T11:01:56;98781.75;;;30.49;25.60
64679;BME280;51094;53.864;27.676;2023-09-19T11:04:28;98793.47;;;30.42;26.17
64679;BME280;51094;53.864;27.676;2023-09-19T11:07:12;98787.75;;;30.56;25.89
64679;BME280;51094;53.864;27.676;2023-09-19T11:09:49;98791.41;;;30.66;25.29
64679;BME280;51094;53.864;27.676;2023-09-19T11:15:00;98796.13;;;30.81;25.29
64679;BME280;51094;53.864;27.676;2023-09-19T11:17:36;98784.94;;;30.89;24.79
64679;BME280;51094;53.864;27.676;2023-09-19T11:30:50;98784.94;;;29.28;27.04
64679;BME280;51094;53.864;27.676;2023-09-19T11:33:26;98784.41;;;29.14;28.00
64679;BME280;51094;53.864;27.676;2023-09-19T11:36:13;98779.97;;;29.20;27.62
64679;BME280;51094;53.864;27.676;2023-09-19T11:46:33;98815.47;;;29.72;27.40
64679;BME280;51094;53.864;27.676;2023-09-19T11:49:06;98772.88;;;29.14;28.00
64679;BME280;51094;53.864;27.676;2023-09-19T11:51:41;98796.94;;;28.45;28.42
64679;BME280;51094;53.864;27.676;2023-09-19T11:54:12;98731.59;;;28.18;28.38
64679;BME280;51094;53.864;27.676;2023-09-19T11:56:45;98683.41;;;27.90;28.87
64679;BME280;51094;53.864;27.676;2023-09-19T11:59:23;98750.44;;;28.35;29.14
64679;BME280;51094;53.864;27.676;2023-09-19T12:01:52;98764.47;;;30.01;27.23
64679;BME280;51094;53.864;27.676;2023-09-19T12:04:42;98725.28;;;32.15;25.73
64679;BME280;51094;53.864;27.676;2023-09-19T12:07:17;98745.09;;;33.24;22.78
64679;BME280;51094;53.864;27.676;2023-09-19T12:09:47;98753.63;;;32.95;24.01
64679;BME280;51094;53.864;27.676;2023-09-19T12:12:26;98751.56;;;33.48;22.59
64679;BME280;51094;53.864;27.676;2023-09-19T12:14:57;98564.72;;;30.79;24.25
64679;BME280;51094;53.864;27.676;2023-09-19T12:17:39;98738.00;;;30.26;25.76
64679;BME280;51094;53.864;27.676;2023-09-19T12:20:10;98712.75;;;29.05;27.47
64679;BME280;51094;53.864;27.676;2023-09-19T12:22:44;98775.53;;;28.45;27.84
64679;BME280;51094;53.864;27.676;2023-09-19T12:25:13;98720.16;;;28.58;28.14
64679;BME280;51094;53.864;27.676;2023-09-19T12:27:48;98743.72;;;29.29;27.33
64679;BME280;51094;53.864;27.676;2023-09-19T12:30:16;98750.88;;;28.95;27.57
64679;BME280;51094;53.864;27.676;2023-09-19T12:32:54;98742.16;;;28.48;28.39
64679;BME280;51094;53.864;27.676;2023-09-19T12:35:32;98681.13;;;27.70;28.92
64679;BME280;51094;53.864;27.676;2023-09-19T12:38:02;98697.53;;;27.43;29.68
64679;BME280;51094;53.864;27.676;2023-09-19T12:40:32;98748.03;;;27.33;30.04
64679;BME280;51094;53.864;27.676;2023-09-19T12:43:01;98733.44;;;26.76;30.99
64679;BME280;51094;53.864;27.676;2023-09-19T12:45:32;98751.28;;;26.75;31.69
64679;BME280;51094;53.864;27.676;2023-09-19T12:48:22;98742.63;;;26.92;32.21
64679;BME280;51094;53.864;27.676;2023-09-19T12:51:09;98743.06;;;26.77;32.05
64679;BME280;51094;53.864;27.676;2023-09-19T12:53:44;98737.75;;;26.59;32.10
64679;BME280;51094;53.864;27.676;2023-09-19T12:56:15;98739.63;;;26.40;31.94
64679;BME280;51094;53.864;27.676;2023-09-19T13:01:24;98741.81;;;26.25;32.78
64679;BME280;51094;53.864;27.676;2023-09-19T13:04:22;98728.00;;;26.34;32.78
64679;BME280;51094;53.864;27.676;2023-09-19T13:06:56;98730.22;;;26.37;32.86
64679;BME280;51094;53.864;27.676;2023-09-19T13:09:28;98727.69;;;26.42;33.30
64679;BME280;51094;53.864;27.676;2023-09-19T13:12:01;98689.00;;;26.15;32.99
64679;BME280;51094;53.864;27.676;2023-09-19T13:14:29;98679.78;;;25.99;33.18
64679;BME280;51094;53.864;27.676;2023-09-19T13:17:06;98734.97;;;26.35;33.50
64679;BME280;51094;53.864;27.676;2023-09-19T13:19:46;98732.66;;;26.39;33.29
64679;BME280;51094;53.864;27.676;2023-09-19T13:25:15;98719.63;;;26.31;33.54
64679;BME280;51094;53.864;27.676;2023-09-19T13:27:49;98714.13;;;26.26;33.98
64679;BME280;51094;53.864;27.676;2023-09-19T13:30:22;98704.56;;;26.55;33.98
64679;BME280;51094;53.864;27.676;2023-09-19T13:32:49;98708.69;;;27.29;32.74
64679;BME280;51094;53.864;27.676;2023-09-19T13:35:16;98703.31;;;29.31;30.17
64679;BME280;51094;53.864;27.676;2023-09-19T13:37:43;98690.09;;;29.96;28.32
64679;BME280;51094;53.864;27.676;2023-09-19T13:40:15;98709.97;;;29.28;29.18
64679;BME280;51094;53.864;27.676;2023-09-19T13:42:42;98686.44;;;28.05;31.19
64679;BME280;51094;53.864;27.676;2023-09-19T13:45:10;98709.38;;;27.36;32.67
64679;BME280;51094;53.864;27.676;2023-09-19T13:47:40;98689.00;;;26.70;33.71
64679;BME280;51094;53.864;27.676;2023-09-19T13:50:08;98694.53;;;26.38;33.76
64679;BME280;51094;53.864;27.676;2023-09-19T13:52:35;98717.25;;;26.41;34.36
64679;BME280;51094;53.864;27.676;2023-09-19T13:55:02;98719.06;;;26.22;34.97
64679;BME280;51094;53.864;27.676;2023-09-19T13:57:29;98671.19;;;25.54;35.61